createdAt,value
2022-11-08T00:01:58.468Z,2.28
2022-11-08T00:04:28.195Z,2.00
2022-11-08T00:07:14.934Z,1.75
2022-11-08T00:10:01.554Z,1.80
2022-11-08T00:12:49.533Z,2.00
2022-11-08T00:15:18.846Z,2.13
2022-11-08T00:17:47.969Z,2.05
2022-11-08T00:20:17.196Z,1.98
2022-11-08T00:22:46.320Z,1.98
2022-11-08T00:25:15.481Z,1.80
2022-11-08T00:27:46.013Z,1.88
2022-11-08T00:30:15.324Z,2.00
2022-11-08T00:32:44.448Z,1.67
2022-11-08T00:35:13.614Z,1.92
2022-11-08T00:37:42.739Z,2.10
2022-11-08T00:40:13.317Z,1.98
2022-11-08T00:42:42.456Z,1.90
2022-11-08T00:45:12.994Z,1.90
2022-11-08T00:47:42.114Z,2.03
2022-11-08T00:50:11.691Z,2.38
2022-11-08T00:52:40.902Z,2.17
2022-11-08T00:55:10.394Z,2.00
2022-11-08T00:57:58.378Z,1.77
2022-11-08T01:00:29.795Z,2.10
2022-11-08T01:03:12.664Z,1.95
2022-11-08T01:05:41.940Z,1.83
2022-11-08T01:08:11.840Z,2.17
2022-11-08T01:10:43.117Z,2.00
2022-11-08T01:13:13.145Z,1.92
2022-11-08T01:15:46.143Z,2.22
2022-11-08T01:18:17.705Z,2.10
2022-11-08T01:20:48.710Z,1.88
2022-11-08T01:23:18.779Z,2.20
2022-11-08T01:25:49.596Z,2.10
2022-11-08T01:28:19.261Z,1.88
2022-11-08T01:30:50.406Z,2.33
2022-11-08T01:33:19.561Z,2.08
2022-11-08T01:35:48.688Z,1.83
2022-11-08T01:38:18.106Z,1.85
2022-11-08T01:40:49.440Z,2.15
2022-11-08T01:43:43.660Z,2.10
2022-11-08T01:46:36.802Z,1.88
2022-11-08T01:49:39.595Z,2.00
2022-11-08T01:52:33.464Z,1.75
2022-11-08T01:55:09.347Z,1.80
2022-11-08T01:57:44.164Z,2.13
2022-11-08T02:00:14.688Z,1.92
2022-11-08T02:02:48.550Z,2.15
2022-11-08T02:05:28.616Z,2.03
2022-11-08T02:08:02.003Z,2.05
2022-11-08T02:10:35.310Z,2.33
2022-11-08T02:13:09.618Z,1.85
2022-11-08T02:15:41.656Z,2.03
2022-11-08T02:18:12.952Z,1.90
2022-11-08T02:20:45.581Z,1.98
2022-11-08T02:23:21.820Z,1.98
2022-11-08T02:25:53.155Z,1.75
2022-11-08T02:28:22.741Z,2.22
2022-11-08T02:30:51.931Z,2.25
2022-11-08T02:33:23.160Z,1.83
2022-11-08T02:35:55.242Z,1.92
2022-11-08T02:38:27.347Z,2.15
2022-11-08T02:40:59.412Z,1.70
2022-11-08T02:43:28.699Z,1.83
2022-11-08T02:45:59.765Z,1.77
2022-11-08T02:48:29.101Z,2.05
2022-11-08T02:50:58.395Z,2.20
2022-11-08T02:53:27.594Z,1.85
2022-11-08T02:55:58.225Z,2.08
2022-11-08T02:58:28.139Z,1.80
2022-11-08T03:00:57.411Z,2.00
2022-11-08T03:03:26.694Z,1.70
2022-11-08T03:05:57.882Z,2.17
2022-11-08T03:08:27.043Z,1.90
2022-11-08T03:10:57.682Z,1.92
2022-11-08T03:13:26.909Z,2.10
2022-11-08T03:15:56.099Z,1.70
2022-11-08T03:18:25.215Z,1.83
2022-11-08T03:20:54.518Z,1.90
2022-11-08T03:23:23.721Z,1.88
2022-11-08T03:25:52.905Z,1.70
2022-11-08T03:28:23.730Z,2.35
2022-11-08T03:30:53.747Z,1.90
2022-11-08T03:33:22.882Z,2.00
2022-11-08T03:35:53.106Z,2.10
2022-11-08T03:38:22.740Z,2.00
2022-11-08T03:40:51.898Z,1.75
2022-11-08T03:43:22.414Z,2.00
2022-11-08T03:45:51.576Z,2.00
2022-11-08T03:48:20.957Z,1.90
2022-11-08T03:50:50.419Z,1.90
2022-11-08T03:53:19.639Z,1.77
2022-11-08T03:55:48.735Z,2.05
2022-11-08T03:58:17.953Z,1.80
2022-11-08T04:00:48.722Z,1.80
2022-11-08T04:03:17.859Z,1.80
2022-11-08T04:05:47.612Z,2.00
2022-11-08T04:08:17.429Z,1.98
2022-11-08T04:10:46.907Z,1.98
2022-11-08T04:13:33.714Z,1.95
2022-11-08T04:16:04.366Z,1.73
2022-11-08T04:18:50.972Z,1.70
2022-11-08T04:21:22.114Z,1.90
2022-11-08T04:23:52.486Z,1.75
2022-11-08T04:26:22.946Z,2.00
2022-11-08T04:28:52.104Z,1.85
2022-11-08T04:31:22.636Z,1.70
2022-11-08T04:33:51.750Z,2.03
2022-11-08T04:36:20.871Z,1.77
2022-11-08T04:38:50.832Z,1.75
2022-11-08T04:41:22.237Z,1.85
2022-11-08T04:43:52.371Z,1.90
2022-11-08T04:46:24.864Z,1.80
2022-11-08T04:48:55.680Z,1.75
2022-11-08T04:51:27.999Z,1.70
2022-11-08T04:53:58.264Z,2.00
2022-11-08T04:56:28.960Z,1.50
2022-11-08T04:59:00.413Z,1.30
2022-11-08T05:01:32.367Z,1.83
2022-11-08T05:04:01.625Z,1.90
2022-11-08T05:06:32.493Z,1.85
2022-11-08T05:09:02.274Z,1.60
2022-11-08T05:11:32.247Z,1.75
2022-11-08T05:14:01.626Z,1.85
2022-11-08T05:16:33.685Z,1.58
2022-11-08T05:19:03.486Z,1.63
2022-11-08T05:21:50.516Z,1.73
2022-11-08T05:24:20.214Z,1.70
2022-11-08T05:26:49.851Z,1.58
2022-11-08T05:29:19.247Z,1.88
2022-11-08T05:31:50.067Z,2.00
2022-11-08T05:34:19.367Z,2.20
2022-11-08T05:36:48.514Z,1.67
2022-11-08T05:39:17.789Z,1.70
2022-11-08T05:41:46.993Z,1.80
2022-11-08T05:44:16.257Z,1.80
2022-11-08T05:46:45.459Z,2.30
2022-11-08T05:49:16.099Z,2.20
2022-11-08T05:51:45.447Z,1.80
2022-11-08T05:54:14.499Z,2.00
2022-11-08T05:56:43.678Z,1.85
2022-11-08T05:59:12.878Z,1.88
2022-11-08T06:01:42.543Z,1.70
2022-11-08T06:04:11.743Z,1.70
2022-11-08T06:06:42.755Z,1.73
2022-11-08T06:09:12.050Z,1.80
2022-11-08T06:11:41.175Z,1.95
2022-11-08T06:14:10.378Z,1.70
2022-11-08T06:16:39.664Z,1.92
2022-11-08T06:19:08.802Z,1.98
2022-11-08T06:21:37.930Z,1.80
2022-11-08T06:24:09.305Z,2.17
2022-11-08T06:26:38.433Z,2.00
2022-11-08T06:29:07.619Z,2.03
2022-11-08T06:31:40.598Z,1.70
2022-11-08T06:34:12.446Z,1.60
2022-11-08T06:36:41.574Z,1.58
2022-11-08T06:39:12.191Z,1.88
2022-11-08T06:41:41.392Z,1.52
2022-11-08T06:44:10.527Z,1.75
2022-11-08T06:46:39.740Z,2.10
2022-11-08T06:49:08.842Z,1.90
2022-11-08T06:51:38.076Z,1.90
2022-11-08T06:54:08.826Z,1.85
2022-11-08T06:56:39.956Z,1.80
2022-11-08T06:59:10.120Z,1.70
2022-11-08T07:01:44.563Z,1.80
2022-11-08T07:04:14.690Z,1.80
2022-11-08T07:06:43.859Z,1.98
2022-11-08T07:09:13.291Z,1.85
2022-11-08T07:11:44.160Z,1.70
2022-11-08T07:14:13.331Z,1.70
2022-11-08T07:16:42.838Z,1.85
2022-11-08T07:19:12.095Z,1.75
2022-11-08T07:21:41.268Z,1.63
2022-11-08T07:24:10.573Z,1.70
2022-11-08T07:26:39.696Z,1.65
2022-11-08T07:29:15.617Z,2.00
2022-11-08T07:31:45.198Z,1.98
2022-11-08T07:34:14.408Z,1.77
2022-11-08T07:36:43.487Z,1.77
2022-11-08T07:39:12.858Z,1.80
2022-11-08T07:41:41.941Z,1.85
2022-11-08T07:44:12.628Z,1.73
2022-11-08T07:46:41.816Z,1.80
2022-11-08T07:49:11.042Z,1.70
2022-11-08T07:51:40.179Z,1.60
2022-11-08T07:54:09.321Z,1.73
2022-11-08T07:56:38.437Z,1.60
2022-11-08T07:59:07.655Z,1.70
2022-11-08T08:01:38.373Z,1.92
2022-11-08T08:04:07.498Z,1.90
2022-11-08T08:06:36.699Z,1.50
2022-11-08T08:09:06.418Z,1.58
2022-11-08T08:11:35.563Z,1.58
2022-11-08T08:14:04.723Z,2.00
2022-11-08T08:16:36.953Z,1.83
2022-11-08T08:19:07.688Z,1.70
2022-11-08T08:21:36.851Z,1.80
2022-11-08T08:24:06.563Z,1.50
2022-11-08T08:26:35.732Z,1.60
2022-11-08T08:29:05.007Z,1.70
2022-11-08T08:31:34.096Z,1.48
2022-11-08T08:34:03.244Z,1.70
2022-11-08T08:36:33.795Z,1.77
2022-11-08T08:39:02.991Z,1.60
2022-11-08T08:41:32.108Z,1.73
2022-11-08T08:44:01.323Z,1.65
2022-11-08T08:46:30.411Z,1.50
2022-11-08T08:48:59.619Z,1.70
2022-11-08T08:51:28.825Z,1.80
2022-11-08T08:53:59.907Z,1.85
2022-11-08T08:56:29.076Z,1.80
2022-11-08T09:01:47.859Z,1.73
2022-11-08T09:04:17.045Z,1.90
2022-11-08T09:06:46.232Z,1.70
2022-11-08T09:09:16.898Z,1.90
2022-11-08T09:11:46.007Z,1.85
2022-11-08T09:14:15.144Z,1.70
2022-11-08T09:16:44.300Z,2.05
2022-11-08T09:19:13.539Z,2.10
2022-11-08T09:21:42.819Z,1.83
2022-11-08T09:24:11.924Z,1.85
2022-11-08T09:26:42.436Z,1.60
2022-11-08T09:29:11.574Z,1.55
2022-11-08T09:31:40.706Z,1.92
2022-11-08T09:34:09.952Z,1.85
2022-11-08T09:36:39.720Z,1.90
2022-11-08T09:39:08.899Z,2.00
2022-11-08T09:42:03.416Z,1.77
2022-11-08T09:45:00.944Z,2.03
2022-11-08T09:47:33.384Z,1.70
2022-11-08T09:50:07.114Z,1.70
2022-11-08T09:52:37.024Z,1.80
2022-11-08T09:55:20.900Z,1.90
2022-11-08T09:58:06.423Z,1.85
2022-11-08T10:00:38.867Z,1.88
2022-11-08T10:03:12.883Z,1.80
2022-11-08T10:05:44.952Z,2.22
2022-11-08T10:08:26.541Z,1.88
2022-11-08T10:11:20.833Z,1.90
2022-11-08T10:14:18.523Z,1.83
2022-11-08T10:17:09.010Z,1.70
2022-11-08T10:20:02.325Z,1.90
2022-11-08T10:22:49.541Z,1.73
2022-11-08T10:25:25.692Z,1.80
2022-11-08T10:27:57.827Z,1.90
2022-11-08T10:30:34.654Z,1.88
2022-11-08T10:33:13.295Z,2.00
2022-11-08T10:35:46.988Z,1.77
2022-11-08T10:38:20.599Z,1.90
2022-11-08T10:40:57.624Z,1.98
2022-11-08T10:43:35.382Z,1.83
2022-11-08T10:46:06.419Z,2.00
2022-11-08T10:48:38.956Z,1.90
2022-11-08T10:51:09.326Z,2.13
2022-11-08T10:53:45.567Z,2.00
2022-11-08T10:56:15.015Z,1.95
2022-11-08T10:58:45.066Z,2.08
2022-11-08T11:01:20.777Z,1.90
2022-11-08T11:03:51.036Z,1.88
2022-11-08T11:06:26.040Z,1.70
2022-11-08T11:08:58.408Z,2.33
2022-11-08T11:11:36.335Z,2.00
2022-11-08T11:14:16.537Z,1.65
2022-11-08T11:16:57.673Z,1.80
2022-11-08T11:19:27.770Z,1.90
2022-11-08T11:21:59.649Z,2.10
2022-11-08T11:24:28.852Z,1.90
2022-11-08T11:27:07.655Z,2.20
2022-11-08T11:29:37.996Z,1.80
2022-11-08T11:32:26.426Z,1.63
2022-11-08T11:34:58.380Z,1.85
2022-11-08T11:37:35.711Z,1.90
2022-11-08T11:40:19.528Z,1.80
2022-11-08T11:43:02.708Z,1.77
2022-11-08T11:45:44.389Z,1.85
2022-11-08T11:48:19.138Z,1.85
2022-11-08T11:50:50.920Z,1.85
2022-11-08T11:53:24.212Z,1.98
2022-11-08T11:56:22.139Z,1.70
2022-11-08T11:59:17.239Z,2.10
2022-11-08T12:01:59.857Z,2.05
2022-11-08T12:04:56.746Z,1.70
2022-11-08T12:07:28.091Z,1.80
2022-11-08T12:10:17.572Z,1.60
2022-11-08T12:12:56.546Z,1.75
2022-11-08T12:15:35.855Z,1.67
2022-11-08T12:18:37.040Z,1.50
2022-11-08T12:21:15.176Z,1.67
2022-11-08T12:24:05.795Z,1.90
2022-11-08T12:26:40.379Z,1.70
2022-11-08T12:29:28.206Z,1.88
2022-11-08T12:32:19.662Z,1.63
2022-11-08T12:35:01.868Z,1.70
2022-11-08T12:37:42.191Z,2.03
2022-11-08T12:40:21.003Z,1.45
2022-11-08T12:43:06.177Z,1.90
2022-11-08T12:45:57.981Z,1.80
2022-11-08T12:48:48.694Z,1.48
2022-11-08T12:51:27.086Z,1.70
2022-11-08T12:54:19.054Z,1.67
2022-11-08T12:56:49.888Z,1.70
2022-11-08T12:59:24.104Z,1.60
2022-11-08T13:01:54.958Z,1.75
2022-11-08T13:04:51.598Z,1.75
2022-11-08T13:07:31.773Z,1.75
2022-11-08T13:10:12.482Z,1.55
2022-11-08T13:12:49.343Z,1.60
2022-11-08T13:15:21.129Z,1.40
2022-11-08T13:18:24.331Z,1.63
2022-11-08T13:20:53.677Z,1.73
2022-11-08T13:23:31.741Z,1.80
2022-11-08T13:26:21.696Z,1.63
2022-11-08T13:28:51.996Z,1.92
2022-11-08T13:31:41.465Z,1.45
2022-11-08T13:34:47.884Z,1.25
2022-11-08T13:37:38.057Z,1.55
2022-11-08T13:40:30.702Z,1.42
2022-11-08T13:43:35.031Z,1.50
2022-11-08T13:46:41.196Z,1.40
2022-11-08T13:49:24.356Z,1.60
2022-11-08T13:52:33.735Z,1.50
2022-11-08T13:55:02.972Z,1.60
2022-11-08T13:58:00.710Z,1.35
2022-11-08T14:00:45.418Z,1.45
2022-11-08T14:03:53.596Z,1.60
2022-11-08T14:06:29.410Z,1.40
2022-11-08T14:09:05.032Z,1.20
2022-11-08T14:11:46.757Z,1.40
2022-11-08T14:14:35.216Z,1.30
2022-11-08T14:17:43.431Z,1.50
2022-11-08T14:20:35.152Z,1.25
2022-11-08T14:23:26.583Z,1.30
2022-11-08T14:25:58.324Z,1.40
2022-11-08T14:28:29.944Z,1.38
2022-11-08T14:31:01.058Z,1.40
2022-11-08T14:33:31.135Z,1.40
2022-11-08T14:36:02.168Z,1.02
2022-11-08T14:38:35.446Z,1.50
2022-11-08T14:41:07.578Z,1.20
2022-11-08T14:43:44.171Z,1.27
2022-11-08T14:46:14.572Z,1.27
2022-11-08T14:48:50.840Z,1.17
2022-11-08T14:51:20.544Z,1.20
2022-11-08T14:53:52.434Z,1.20
2022-11-08T14:56:24.008Z,1.30
2022-11-08T14:58:54.902Z,1.40
2022-11-08T15:01:26.364Z,1.30
2022-11-08T15:03:58.173Z,1.20
2022-11-08T15:06:32.594Z,1.20
2022-11-08T15:09:04.537Z,1.50
2022-11-08T15:11:35.827Z,1.52
2022-11-08T15:14:06.985Z,1.35
2022-11-08T15:16:41.632Z,1.20
2022-11-08T15:19:29.625Z,1.40
2022-11-08T15:21:59.440Z,1.38
2022-11-08T15:24:37.033Z,1.50
2022-11-08T15:27:16.969Z,1.23
2022-11-08T15:29:54.225Z,1.20
2022-11-08T15:32:23.934Z,1.50
2022-11-08T15:34:56.301Z,1.40
2022-11-08T15:37:32.870Z,1.40
2022-11-08T15:40:05.730Z,1.13
2022-11-08T15:42:40.554Z,1.50
2022-11-08T15:45:26.059Z,1.20
2022-11-08T15:48:02.503Z,1.23
2022-11-08T15:50:33.238Z,1.38
2022-11-08T15:53:04.758Z,1.20
2022-11-08T15:55:38.875Z,1.20
2022-11-08T15:58:15.362Z,1.13
2022-11-08T16:00:47.365Z,1.20
2022-11-08T16:03:16.935Z,1.52
2022-11-08T16:05:46.042Z,1.40
2022-11-08T16:08:19.969Z,1.70
2022-11-08T16:10:53.566Z,1.42
2022-11-08T16:13:26.965Z,1.67
2022-11-08T16:15:56.188Z,1.25
2022-11-08T16:18:25.469Z,1.48
2022-11-08T16:20:54.929Z,1.30
2022-11-08T16:23:24.074Z,1.52
2022-11-08T16:25:57.017Z,1.33
2022-11-08T16:28:29.845Z,1.30
2022-11-08T16:30:59.135Z,1.15
2022-11-08T16:33:30.485Z,1.38
2022-11-08T16:36:01.055Z,1.65
2022-11-08T16:38:31.750Z,1.33
2022-11-08T16:41:02.576Z,1.08
2022-11-08T16:43:32.366Z,1.20
2022-11-08T16:46:07.337Z,1.20
2022-11-08T16:48:39.322Z,0.95
2022-11-08T16:51:15.041Z,1.10
2022-11-08T16:53:44.467Z,1.52
2022-11-08T16:56:15.329Z,1.40
2022-11-08T16:58:45.253Z,1.40
2022-11-08T17:01:17.450Z,1.10
2022-11-08T17:03:46.782Z,1.25
2022-11-08T17:06:18.601Z,0.98
2022-11-08T17:08:48.329Z,1.20
2022-11-08T17:11:20.956Z,1.10
2022-11-08T17:13:50.701Z,1.23
2022-11-08T17:16:21.427Z,1.10
2022-11-08T17:18:53.090Z,1.30
2022-11-08T17:21:44.720Z,1.10
2022-11-08T17:24:14.724Z,1.23
2022-11-08T17:26:51.189Z,1.20
2022-11-08T17:29:20.626Z,1.13
2022-11-08T17:31:50.452Z,1.25
2022-11-08T17:34:19.744Z,1.10
2022-11-08T17:36:52.864Z,1.00
2022-11-08T17:39:22.621Z,0.80
2022-11-08T17:41:53.311Z,1.00
2022-11-08T17:44:22.554Z,1.48
2022-11-08T17:46:51.849Z,1.15
2022-11-08T17:49:21.089Z,1.20
2022-11-08T17:51:50.265Z,1.20
2022-11-08T17:54:19.687Z,1.45
2022-11-08T17:56:48.866Z,1.13
2022-11-08T17:59:19.579Z,0.98
2022-11-08T18:01:49.013Z,1.13
2022-11-08T18:04:18.723Z,1.25
2022-11-08T18:06:48.204Z,1.10
2022-11-08T18:09:17.663Z,1.20
2022-11-08T18:11:48.867Z,1.17
2022-11-08T18:14:28.063Z,1.10
2022-11-08T18:16:58.052Z,1.20
2022-11-08T18:19:27.261Z,1.13
2022-11-08T18:21:56.506Z,1.17
2022-11-08T18:24:25.663Z,1.00
2022-11-08T18:26:54.860Z,0.90
2022-11-08T18:29:25.570Z,1.20
2022-11-08T18:31:54.809Z,1.35
2022-11-08T18:34:24.006Z,1.05
2022-11-08T18:36:53.245Z,1.08
2022-11-08T18:39:22.510Z,1.20
2022-11-08T18:41:51.722Z,1.00
2022-11-08T18:44:20.957Z,0.90
2022-11-08T18:46:51.887Z,1.00
2022-11-08T18:49:21.258Z,0.90
2022-11-08T18:51:52.865Z,1.20
2022-11-08T18:54:22.455Z,1.10
2022-11-08T18:56:51.618Z,1.13
2022-11-08T18:59:20.912Z,1.10
2022-11-08T19:01:51.494Z,1.55
2022-11-08T19:04:20.724Z,1.10
2022-11-08T19:06:54.299Z,1.33
2022-11-08T19:09:24.279Z,1.25
2022-11-08T19:11:54.005Z,1.50
2022-11-08T19:14:23.253Z,1.30
2022-11-08T19:16:56.335Z,1.40
2022-11-08T19:19:25.830Z,1.52
2022-11-08T19:21:55.130Z,1.50
2022-11-08T19:24:24.386Z,1.08
2022-11-08T19:26:53.518Z,1.20
2022-11-08T19:29:23.076Z,1.63
2022-11-08T19:31:53.858Z,1.50
2022-11-08T19:34:23.110Z,1.50
2022-11-08T19:36:55.769Z,1.13
2022-11-08T19:39:25.407Z,1.17
2022-11-08T19:41:54.763Z,1.02
2022-11-08T19:44:23.953Z,1.20
2022-11-08T19:46:54.533Z,1.25
2022-11-08T19:49:26.500Z,1.23
2022-11-08T19:51:55.670Z,1.48
2022-11-08T19:54:24.834Z,1.75
2022-11-08T19:57:09.255Z,1.60
2022-11-08T19:59:38.627Z,1.45
2022-11-08T20:02:10.849Z,1.20
2022-11-08T20:04:40.233Z,1.20
2022-11-08T20:07:09.521Z,1.30
2022-11-08T20:09:38.920Z,1.45
2022-11-08T20:12:08.276Z,1.30
2022-11-08T20:14:37.471Z,1.17
2022-11-08T20:17:06.588Z,1.60
2022-11-08T20:19:37.275Z,1.35
2022-11-08T20:22:06.713Z,1.13
2022-11-08T20:24:36.414Z,1.17
2022-11-08T20:27:06.183Z,1.40
2022-11-08T20:29:35.972Z,1.10
2022-11-08T20:32:05.740Z,1.20
2022-11-08T20:34:38.629Z,1.52
2022-11-08T20:37:07.986Z,1.13
2022-11-08T20:39:37.265Z,0.98
2022-11-08T20:42:06.482Z,1.30
2022-11-08T20:44:35.646Z,1.80
2022-11-08T20:47:06.695Z,1.25
2022-11-08T20:49:37.673Z,1.20
2022-11-08T20:52:07.835Z,1.30
2022-11-08T20:54:42.691Z,1.27
2022-11-08T20:57:13.132Z,1.27
2022-11-08T20:59:42.433Z,0.98
2022-11-08T21:02:12.885Z,1.10
2022-11-08T21:04:43.604Z,1.02
2022-11-08T21:08:01.418Z,1.10
2022-11-08T21:10:35.249Z,1.45
2022-11-08T21:12:51.888Z,1.10
2022-11-08T21:15:26.743Z,1.23
2022-11-08T21:17:56.532Z,1.40
2022-11-08T21:20:27.598Z,1.30
2022-11-08T21:22:57.079Z,1.10
2022-11-08T21:25:26.530Z,1.15
2022-11-08T21:27:56.034Z,1.10
2022-11-08T21:30:25.419Z,1.20
2022-11-08T21:32:54.973Z,1.30
2022-11-08T21:35:24.736Z,1.23
2022-11-08T21:37:55.777Z,1.33
2022-11-08T21:40:25.154Z,1.45
2022-11-08T21:42:54.256Z,1.15
2022-11-08T21:45:23.522Z,1.40
2022-11-08T21:47:53.413Z,1.00
2022-11-08T21:50:23.507Z,1.27
2022-11-08T21:52:54.882Z,1.00
2022-11-08T21:55:23.990Z,1.33
2022-11-08T21:57:53.178Z,1.40
2022-11-08T22:00:22.449Z,1.30
2022-11-08T22:02:51.621Z,1.35
2022-11-08T22:05:20.694Z,1.20
2022-11-08T22:07:49.816Z,1.30
2022-11-08T22:10:20.718Z,1.40
2022-11-08T22:12:49.943Z,1.10
2022-11-08T22:15:19.241Z,1.30
2022-11-08T22:18:14.272Z,1.20
2022-11-08T22:20:58.389Z,1.20
2022-11-08T22:23:27.501Z,1.20
2022-11-08T22:25:58.011Z,1.40
2022-11-08T22:28:27.300Z,1.10
2022-11-08T22:30:56.564Z,1.33
2022-11-08T22:33:25.729Z,1.30
2022-11-08T22:35:54.820Z,1.00
2022-11-08T22:38:23.925Z,1.42
2022-11-08T22:40:53.432Z,1.13
2022-11-08T22:43:24.023Z,1.20
2022-11-08T22:45:53.132Z,1.10
2022-11-08T22:48:22.985Z,1.10
2022-11-08T22:50:52.173Z,1.20
2022-11-08T22:53:21.386Z,1.33
2022-11-08T22:55:51.023Z,1.40
2022-11-08T22:58:20.336Z,1.40
2022-11-08T23:00:51.712Z,1.20
2022-11-08T23:03:21.098Z,1.38
2022-11-08T23:05:51.190Z,1.20
2022-11-08T23:08:21.277Z,1.08
2022-11-08T23:11:08.096Z,1.30
2022-11-08T23:13:55.892Z,1.27
2022-11-08T23:16:40.152Z,1.20
2022-11-08T23:19:28.815Z,0.90
2022-11-08T23:22:15.132Z,0.93
2022-11-08T23:24:44.600Z,0.90
2022-11-08T23:27:32.342Z,1.20
2022-11-08T23:30:19.012Z,1.13
2022-11-08T23:32:50.974Z,1.02
2022-11-08T23:35:22.262Z,1.20
2022-11-08T23:37:51.555Z,1.13
2022-11-08T23:40:38.999Z,1.00
2022-11-08T23:43:28.587Z,1.00
2022-11-08T23:45:58.327Z,0.93
2022-11-08T23:48:29.988Z,0.98
2022-11-08T23:50:59.323Z,1.05
2022-11-08T23:53:28.471Z,0.98
2022-11-08T23:55:57.868Z,1.20
2022-11-08T23:58:27.562Z,0.90
